sensor_id;sensor_type;location;lat;lon;timestamp;P1;durP1;ratioP1;P2;durP2;ratioP2
20749;SDS011;10535;50.664;4.564;2022-09-13T00:02:01;2.30;;;1.57;;
20749;SDS011;10535;50.664;4.564;2022-09-13T00:04:27;3.13;;;1.60;;
20749;SDS011;10535;50.664;4.564;2022-09-13T00:06:52;2.67;;;1.53;;
20749;SDS011;10535;50.664;4.564;2022-09-13T00:09:18;4.60;;;1.70;;
20749;SDS011;10535;50.664;4.564;2022-09-13T00:11:43;10.63;;;1.87;;
20749;SDS011;10535;50.664;4.564;2022-09-13T00:14:09;7.63;;;2.00;;
20749;SDS011;10535;50.664;4.564;2022-09-13T00:16:34;5.57;;;2.27;;
20749;SDS011;10535;50.664;4.564;2022-09-13T00:19:01;3.67;;;2.20;;
20749;SDS011;10535;50.664;4.564;2022-09-13T00:21:26;2.53;;;2.10;;
20749;SDS011;10535;50.664;4.564;2022-09-13T00:23:53;3.97;;;2.03;;
20749;SDS011;10535;50.664;4.564;2022-09-13T00:26:23;3.83;;;1.87;;
20749;SDS011;10535;50.664;4.564;2022-09-13T00:28:51;2.17;;;1.93;;
20749;SDS011;10535;50.664;4.564;2022-09-13T00:31:19;3.87;;;2.17;;
20749;SDS011;10535;50.664;4.564;2022-09-13T00:33:45;3.73;;;1.90;;
20749;SDS011;10535;50.664;4.564;2022-09-13T00:36:11;2.03;;;1.80;;
20749;SDS011;10535;50.664;4.564;2022-09-13T00:38:38;5.17;;;2.23;;
20749;SDS011;10535;50.664;4.564;2022-09-13T00:41:05;2.73;;;2.00;;
20749;SDS011;10535;50.664;4.564;2022-09-13T00:43:46;2.03;;;1.77;;
20749;SDS011;10535;50.664;4.564;2022-09-13T00:46:57;3.87;;;2.00;;
20749;SDS011;10535;50.664;4.564;2022-09-13T00:51:44;3.03;;;1.97;;
20749;SDS011;10535;50.664;4.564;2022-09-13T00:54:17;2.67;;;1.73;;
20749;SDS011;10535;50.664;4.564;2022-09-13T00:56:48;4.27;;;2.00;;
20749;SDS011;10535;50.664;4.564;2022-09-13T00:59:18;2.93;;;1.90;;
20749;SDS011;10535;50.664;4.564;2022-09-13T01:01:50;2.00;;;1.80;;
20749;SDS011;10535;50.664;4.564;2022-09-13T01:04:19;3.23;;;2.03;;
20749;SDS011;10535;50.664;4.564;2022-09-13T01:06:46;3.17;;;2.10;;
20749;SDS011;10535;50.664;4.564;2022-09-13T01:09:16;1.80;;;1.70;;
20749;SDS011;10535;50.664;4.564;2022-09-13T01:11:45;2.40;;;1.93;;
20749;SDS011;10535;50.664;4.564;2022-09-13T01:14:15;3.83;;;2.27;;
20749;SDS011;10535;50.664;4.564;2022-09-13T01:16:43;2.90;;;2.03;;
20749;SDS011;10535;50.664;4.564;2022-09-13T01:19:09;4.90;;;2.17;;
20749;SDS011;10535;50.664;4.564;2022-09-13T01:21:48;2.93;;;1.93;;
20749;SDS011;10535;50.664;4.564;2022-09-13T01:24:43;5.23;;;2.13;;
20749;SDS011;10535;50.664;4.564;2022-09-13T01:32:58;5.00;;;2.57;;
20749;SDS011;10535;50.664;4.564;2022-09-13T01:35:46;5.30;;;1.97;;
20749;SDS011;10535;50.664;4.564;2022-09-13T01:41:19;2.83;;;2.20;;
20749;SDS011;10535;50.664;4.564;2022-09-13T01:54:33;2.47;;;1.93;;
20749;SDS011;10535;50.664;4.564;2022-09-13T01:57:05;2.70;;;1.83;;
20749;SDS011;10535;50.664;4.564;2022-09-13T02:02:09;4.30;;;2.20;;
20749;SDS011;10535;50.664;4.564;2022-09-13T02:04:49;3.47;;;2.00;;
20749;SDS011;10535;50.664;4.564;2022-09-13T02:07:52;4.37;;;2.37;;
20749;SDS011;10535;50.664;4.564;2022-09-13T02:10:21;3.67;;;2.40;;
20749;SDS011;10535;50.664;4.564;2022-09-13T02:12:59;4.00;;;2.57;;
20749;SDS011;10535;50.664;4.564;2022-09-13T02:15:29;3.60;;;2.07;;
20749;SDS011;10535;50.664;4.564;2022-09-13T02:18:02;7.17;;;2.77;;
20749;SDS011;10535;50.664;4.564;2022-09-13T02:20:36;4.43;;;2.30;;
20749;SDS011;10535;50.664;4.564;2022-09-13T02:23:18;3.87;;;2.13;;
20749;SDS011;10535;50.664;4.564;2022-09-13T02:25:49;4.33;;;2.00;;
20749;SDS011;10535;50.664;4.564;2022-09-13T02:28:20;4.27;;;2.63;;
20749;SDS011;10535;50.664;4.564;2022-09-13T02:30:51;3.43;;;2.10;;
20749;SDS011;10535;50.664;4.564;2022-09-13T02:36:03;3.60;;;1.87;;
20749;SDS011;10535;50.664;4.564;2022-09-13T02:38:37;6.90;;;1.87;;
20749;SDS011;10535;50.664;4.564;2022-09-13T02:41:15;6.07;;;2.20;;
20749;SDS011;10535;50.664;4.564;2022-09-13T02:44:13;4.50;;;2.17;;
20749;SDS011;10535;50.664;4.564;2022-09-13T02:55:41;4.67;;;1.90;;
20749;SDS011;10535;50.664;4.564;2022-09-13T02:58:19;4.67;;;2.60;;
20749;SDS011;10535;50.664;4.564;2022-09-13T03:00:49;2.70;;;2.00;;
20749;SDS011;10535;50.664;4.564;2022-09-13T03:03:15;2.30;;;1.80;;
20749;SDS011;10535;50.664;4.564;2022-09-13T03:05:41;2.73;;;2.13;;
20749;SDS011;10535;50.664;4.564;2022-09-13T03:08:07;4.67;;;2.30;;
20749;SDS011;10535;50.664;4.564;2022-09-13T03:11:00;4.90;;;2.20;;
20749;SDS011;10535;50.664;4.564;2022-09-13T03:16:23;2.83;;;2.17;;
20749;SDS011;10535;50.664;4.564;2022-09-13T03:19:00;2.50;;;1.90;;
20749;SDS011;10535;50.664;4.564;2022-09-13T03:24:48;3.10;;;2.10;;
20749;SDS011;10535;50.664;4.564;2022-09-13T03:27:26;2.30;;;1.73;;
20749;SDS011;10535;50.664;4.564;2022-09-13T03:30:08;5.07;;;1.93;;
20749;SDS011;10535;50.664;4.564;2022-09-13T03:32:42;3.63;;;1.80;;
20749;SDS011;10535;50.664;4.564;2022-09-13T03:41:06;3.00;;;2.07;;
20749;SDS011;10535;50.664;4.564;2022-09-13T03:43:46;3.30;;;1.80;;
20749;SDS011;10535;50.664;4.564;2022-09-13T03:46:20;4.30;;;1.97;;
20749;SDS011;10535;50.664;4.564;2022-09-13T03:48:53;3.33;;;1.70;;
20749;SDS011;10535;50.664;4.564;2022-09-13T03:51:21;2.57;;;2.07;;
20749;SDS011;10535;50.664;4.564;2022-09-13T03:53:49;3.83;;;1.83;;
20749;SDS011;10535;50.664;4.564;2022-09-13T03:56:20;5.20;;;2.20;;
20749;SDS011;10535;50.664;4.564;2022-09-13T03:58:46;3.93;;;2.07;;
20749;SDS011;10535;50.664;4.564;2022-09-13T04:01:12;2.53;;;2.10;;
20749;SDS011;10535;50.664;4.564;2022-09-13T04:03:40;2.20;;;1.77;;
20749;SDS011;10535;50.664;4.564;2022-09-13T04:06:05;5.43;;;1.83;;
20749;SDS011;10535;50.664;4.564;2022-09-13T04:08:31;4.20;;;1.70;;
20749;SDS011;10535;50.664;4.564;2022-09-13T04:10:57;2.80;;;1.57;;
20749;SDS011;10535;50.664;4.564;2022-09-13T04:13:24;4.03;;;1.97;;
20749;SDS011;10535;50.664;4.564;2022-09-13T04:15:50;3.37;;;2.00;;
20749;SDS011;10535;50.664;4.564;2022-09-13T04:18:16;4.50;;;2.37;;
20749;SDS011;10535;50.664;4.564;2022-09-13T04:20:42;4.30;;;2.17;;
20749;SDS011;10535;50.664;4.564;2022-09-13T04:23:08;18.20;;;2.90;;
20749;SDS011;10535;50.664;4.564;2022-09-13T04:25:36;6.60;;;2.13;;
20749;SDS011;10535;50.664;4.564;2022-09-13T04:28:02;4.10;;;2.30;;
20749;SDS011;10535;50.664;4.564;2022-09-13T04:30:28;5.87;;;2.10;;
20749;SDS011;10535;50.664;4.564;2022-09-13T04:32:54;3.17;;;2.40;;
20749;SDS011;10535;50.664;4.564;2022-09-13T04:35:23;4.40;;;1.97;;
20749;SDS011;10535;50.664;4.564;2022-09-13T04:37:49;4.63;;;1.80;;
20749;SDS011;10535;50.664;4.564;2022-09-13T04:40:15;5.30;;;2.47;;
20749;SDS011;10535;50.664;4.564;2022-09-13T04:42:42;5.10;;;2.87;;
20749;SDS011;10535;50.664;4.564;2022-09-13T04:45:08;3.33;;;2.20;;
20749;SDS011;10535;50.664;4.564;2022-09-13T04:47:34;6.00;;;2.60;;
20749;SDS011;10535;50.664;4.564;2022-09-13T04:50:00;3.10;;;2.00;;
20749;SDS011;10535;50.664;4.564;2022-09-13T04:52:25;5.03;;;1.90;;
20749;SDS011;10535;50.664;4.564;2022-09-13T04:54:51;4.30;;;1.90;;
20749;SDS011;10535;50.664;4.564;2022-09-13T04:57:17;6.10;;;2.33;;
20749;SDS011;10535;50.664;4.564;2022-09-13T04:59:43;3.77;;;1.83;;
20749;SDS011;10535;50.664;4.564;2022-09-13T05:02:08;2.83;;;1.70;;
20749;SDS011;10535;50.664;4.564;2022-09-13T05:04:34;5.47;;;2.23;;
20749;SDS011;10535;50.664;4.564;2022-09-13T05:07:00;7.30;;;2.87;;
20749;SDS011;10535;50.664;4.564;2022-09-13T05:09:26;3.40;;;2.03;;
20749;SDS011;10535;50.664;4.564;2022-09-13T05:11:51;3.37;;;2.07;;
20749;SDS011;10535;50.664;4.564;2022-09-13T05:14:17;3.63;;;1.97;;
20749;SDS011;10535;50.664;4.564;2022-09-13T05:16:43;2.97;;;2.10;;
20749;SDS011;10535;50.664;4.564;2022-09-13T05:19:09;3.20;;;1.90;;
20749;SDS011;10535;50.664;4.564;2022-09-13T05:21:36;3.93;;;1.90;;
20749;SDS011;10535;50.664;4.564;2022-09-13T05:24:01;2.87;;;2.10;;
20749;SDS011;10535;50.664;4.564;2022-09-13T05:26:28;3.83;;;2.37;;
20749;SDS011;10535;50.664;4.564;2022-09-13T05:28:58;3.80;;;2.03;;
20749;SDS011;10535;50.664;4.564;2022-09-13T05:31:25;3.70;;;2.20;;
20749;SDS011;10535;50.664;4.564;2022-09-13T05:33:53;3.60;;;2.37;;
20749;SDS011;10535;50.664;4.564;2022-09-13T05:36:20;4.50;;;2.37;;
20749;SDS011;10535;50.664;4.564;2022-09-13T05:38:46;4.57;;;2.47;;
20749;SDS011;10535;50.664;4.564;2022-09-13T05:41:11;5.33;;;2.67;;
20749;SDS011;10535;50.664;4.564;2022-09-13T05:43:37;5.83;;;2.40;;
20749;SDS011;10535;50.664;4.564;2022-09-13T05:46:07;2.47;;;2.23;;
20749;SDS011;10535;50.664;4.564;2022-09-13T05:48:48;5.10;;;2.90;;
20749;SDS011;10535;50.664;4.564;2022-09-13T05:51:21;3.00;;;2.63;;
20749;SDS011;10535;50.664;4.564;2022-09-13T05:53:48;7.03;;;2.57;;
20749;SDS011;10535;50.664;4.564;2022-09-13T05:56:35;3.40;;;2.10;;
20749;SDS011;10535;50.664;4.564;2022-09-13T05:59:10;5.83;;;2.40;;
20749;SDS011;10535;50.664;4.564;2022-09-13T06:01:37;3.60;;;2.60;;
20749;SDS011;10535;50.664;4.564;2022-09-13T06:04:06;3.37;;;2.17;;
20749;SDS011;10535;50.664;4.564;2022-09-13T06:06:32;4.03;;;2.10;;
20749;SDS011;10535;50.664;4.564;2022-09-13T06:09:06;7.07;;;2.40;;
20749;SDS011;10535;50.664;4.564;2022-09-13T06:11:39;4.47;;;2.80;;
20749;SDS011;10535;50.664;4.564;2022-09-13T06:14:06;4.60;;;2.50;;
20749;SDS011;10535;50.664;4.564;2022-09-13T06:16:34;3.60;;;2.00;;
20749;SDS011;10535;50.664;4.564;2022-09-13T06:19:02;4.37;;;2.43;;
20749;SDS011;10535;50.664;4.564;2022-09-13T06:21:29;4.67;;;2.50;;
20749;SDS011;10535;50.664;4.564;2022-09-13T06:23:54;3.73;;;2.00;;
20749;SDS011;10535;50.664;4.564;2022-09-13T06:26:24;7.37;;;2.70;;
20749;SDS011;10535;50.664;4.564;2022-09-13T06:28:56;5.67;;;2.80;;
20749;SDS011;10535;50.664;4.564;2022-09-13T06:31:36;4.37;;;2.70;;
20749;SDS011;10535;50.664;4.564;2022-09-13T06:34:23;3.70;;;2.50;;
20749;SDS011;10535;50.664;4.564;2022-09-13T06:36:59;7.40;;;2.33;;
20749;SDS011;10535;50.664;4.564;2022-09-13T06:39:27;3.33;;;2.13;;
20749;SDS011;10535;50.664;4.564;2022-09-13T06:42:02;2.83;;;2.00;;
20749;SDS011;10535;50.664;4.564;2022-09-13T06:44:30;2.93;;;2.40;;
20749;SDS011;10535;50.664;4.564;2022-09-13T06:46:59;4.80;;;2.50;;
20749;SDS011;10535;50.664;4.564;2022-09-13T06:49:25;3.37;;;2.03;;
20749;SDS011;10535;50.664;4.564;2022-09-13T06:51:56;4.27;;;2.47;;
20749;SDS011;10535;50.664;4.564;2022-09-13T06:54:22;6.43;;;2.93;;
20749;SDS011;10535;50.664;4.564;2022-09-13T06:56:51;3.30;;;2.50;;
20749;SDS011;10535;50.664;4.564;2022-09-13T06:59:18;3.20;;;2.07;;
20749;SDS011;10535;50.664;4.564;2022-09-13T07:01:47;2.97;;;2.57;;
20749;SDS011;10535;50.664;4.564;2022-09-13T07:04:27;3.70;;;2.77;;
20749;SDS011;10535;50.664;4.564;2022-09-13T07:06:59;4.30;;;2.50;;
20749;SDS011;10535;50.664;4.564;2022-09-13T07:09:29;5.57;;;3.00;;
20749;SDS011;10535;50.664;4.564;2022-09-13T07:11:55;3.93;;;2.93;;
20749;SDS011;10535;50.664;4.564;2022-09-13T07:14:24;4.17;;;2.40;;
20749;SDS011;10535;50.664;4.564;2022-09-13T07:16:59;4.73;;;3.37;;
20749;SDS011;10535;50.664;4.564;2022-09-13T07:19:27;5.53;;;3.00;;
20749;SDS011;10535;50.664;4.564;2022-09-13T07:21:56;3.60;;;2.57;;
20749;SDS011;10535;50.664;4.564;2022-09-13T07:24:25;5.63;;;2.63;;
20749;SDS011;10535;50.664;4.564;2022-09-13T07:26:52;7.43;;;2.97;;
20749;SDS011;10535;50.664;4.564;2022-09-13T07:29:21;3.93;;;2.67;;
20749;SDS011;10535;50.664;4.564;2022-09-13T07:32:10;10.27;;;2.80;;
20749;SDS011;10535;50.664;4.564;2022-09-13T07:34:37;3.47;;;2.60;;
20749;SDS011;10535;50.664;4.564;2022-09-13T07:37:08;6.30;;;3.00;;
20749;SDS011;10535;50.664;4.564;2022-09-13T07:39:56;4.97;;;2.57;;
20749;SDS011;10535;50.664;4.564;2022-09-13T07:42:23;3.37;;;2.57;;
20749;SDS011;10535;50.664;4.564;2022-09-13T07:44:50;4.20;;;2.53;;
20749;SDS011;10535;50.664;4.564;2022-09-13T07:47:19;5.73;;;2.60;;
20749;SDS011;10535;50.664;4.564;2022-09-13T07:49:48;4.17;;;2.40;;
20749;SDS011;10535;50.664;4.564;2022-09-13T07:52:14;5.47;;;2.30;;
20749;SDS011;10535;50.664;4.564;2022-09-13T07:54:44;2.60;;;2.30;;
20749;SDS011;10535;50.664;4.564;2022-09-13T07:57:11;7.17;;;2.93;;
20749;SDS011;10535;50.664;4.564;2022-09-13T07:59:39;7.20;;;2.63;;
20749;SDS011;10535;50.664;4.564;2022-09-13T08:02:09;3.50;;;2.30;;
20749;SDS011;10535;50.664;4.564;2022-09-13T08:05:01;6.90;;;2.50;;
20749;SDS011;10535;50.664;4.564;2022-09-13T08:07:27;7.80;;;2.60;;
20749;SDS011;10535;50.664;4.564;2022-09-13T08:09:55;8.13;;;2.83;;
20749;SDS011;10535;50.664;4.564;2022-09-13T08:12:37;6.87;;;2.43;;
20749;SDS011;10535;50.664;4.564;2022-09-13T08:15:03;5.38;;;2.50;;
20749;SDS011;10535;50.664;4.564;2022-09-13T08:17:33;8.30;;;2.80;;
20749;SDS011;10535;50.664;4.564;2022-09-13T08:20:02;8.03;;;2.57;;
20749;SDS011;10535;50.664;4.564;2022-09-13T08:22:29;5.43;;;2.72;;
20749;SDS011;10535;50.664;4.564;2022-09-13T08:24:57;6.37;;;2.73;;
20749;SDS011;10535;50.664;4.564;2022-09-13T08:27:35;4.72;;;2.42;;
20749;SDS011;10535;50.664;4.564;2022-09-13T08:30:02;10.98;;;2.80;;
20749;SDS011;10535;50.664;4.564;2022-09-13T08:32:38;6.28;;;2.42;;
20749;SDS011;10535;50.664;4.564;2022-09-13T08:35:05;6.80;;;2.65;;
20749;SDS011;10535;50.664;4.564;2022-09-13T08:37:33;6.32;;;2.65;;
20749;SDS011;10535;50.664;4.564;2022-09-13T08:39:59;5.70;;;2.85;;
20749;SDS011;10535;50.664;4.564;2022-09-13T08:42:45;8.68;;;3.10;;
20749;SDS011;10535;50.664;4.564;2022-09-13T08:45:39;9.00;;;3.55;;
20749;SDS011;10535;50.664;4.564;2022-09-13T08:48:15;5.30;;;2.85;;
20749;SDS011;10535;50.664;4.564;2022-09-13T08:50:51;4.32;;;2.38;;
20749;SDS011;10535;50.664;4.564;2022-09-13T08:53:36;5.07;;;2.65;;
20749;SDS011;10535;50.664;4.564;2022-09-13T08:56:14;4.20;;;2.50;;
20749;SDS011;10535;50.664;4.564;2022-09-13T09:02:05;3.83;;;2.42;;
20749;SDS011;10535;50.664;4.564;2022-09-13T09:07:51;9.55;;;3.22;;
20749;SDS011;10535;50.664;4.564;2022-09-13T09:10:50;6.90;;;3.08;;
20749;SDS011;10535;50.664;4.564;2022-09-13T09:13:26;3.42;;;2.42;;
20749;SDS011;10535;50.664;4.564;2022-09-13T09:16:27;5.05;;;2.35;;
20749;SDS011;10535;50.664;4.564;2022-09-13T09:19:21;4.05;;;2.25;;
20749;SDS011;10535;50.664;4.564;2022-09-13T09:22:18;6.05;;;2.08;;
20749;SDS011;10535;50.664;4.564;2022-09-13T09:25:12;4.13;;;1.80;;
20749;SDS011;10535;50.664;4.564;2022-09-13T09:27:41;5.13;;;1.67;;
20749;SDS011;10535;50.664;4.564;2022-09-13T09:30:11;5.70;;;2.00;;
20749;SDS011;10535;50.664;4.564;2022-09-13T09:35:47;5.10;;;1.77;;
20749;SDS011;10535;50.664;4.564;2022-09-13T09:38:24;7.07;;;2.00;;
20749;SDS011;10535;50.664;4.564;2022-09-13T09:44:18;2.50;;;1.77;;
20749;SDS011;10535;50.664;4.564;2022-09-13T09:46:56;2.97;;;2.00;;
20749;SDS011;10535;50.664;4.564;2022-09-13T09:49:54;3.33;;;1.88;;
20749;SDS011;10535;50.664;4.564;2022-09-13T09:53:00;3.17;;;1.67;;
20749;SDS011;10535;50.664;4.564;2022-09-13T09:58:40;5.63;;;1.33;;
20749;SDS011;10535;50.664;4.564;2022-09-13T10:01:33;2.13;;;1.25;;
20749;SDS011;10535;50.664;4.564;2022-09-13T10:11:56;4.15;;;1.73;;
20749;SDS011;10535;50.664;4.564;2022-09-13T10:14:29;5.78;;;1.90;;
20749;SDS011;10535;50.664;4.564;2022-09-13T10:17:28;2.42;;;1.35;;
20749;SDS011;10535;50.664;4.564;2022-09-13T10:22:39;2.45;;;1.60;;
20749;SDS011;10535;50.664;4.564;2022-09-13T10:25:28;7.10;;;2.30;;
20749;SDS011;10535;50.664;4.564;2022-09-13T10:27:57;2.92;;;1.50;;
20749;SDS011;10535;50.664;4.564;2022-09-13T10:30:35;3.80;;;1.73;;
20749;SDS011;10535;50.664;4.564;2022-09-13T10:36:04;2.38;;;1.35;;
20749;SDS011;10535;50.664;4.564;2022-09-13T10:38:40;3.08;;;1.70;;
20749;SDS011;10535;50.664;4.564;2022-09-13T10:41:30;5.25;;;1.55;;
20749;SDS011;10535;50.664;4.564;2022-09-13T10:46:57;3.40;;;1.70;;
20749;SDS011;10535;50.664;4.564;2022-09-13T10:52:23;4.35;;;1.70;;
20749;SDS011;10535;50.664;4.564;2022-09-13T10:55:29;11.88;;;2.60;;
20749;SDS011;10535;50.664;4.564;2022-09-13T10:59:15;3.50;;;1.80;;
20749;SDS011;10535;50.664;4.564;2022-09-13T11:10:57;3.40;;;2.00;;
20749;SDS011;10535;50.664;4.564;2022-09-13T11:17:17;7.65;;;2.10;;
20749;SDS011;10535;50.664;4.564;2022-09-13T11:23:58;2.42;;;2.10;;
20749;SDS011;10535;50.664;4.564;2022-09-13T11:30:09;4.70;;;1.98;;
20749;SDS011;10535;50.664;4.564;2022-09-13T11:35:59;3.35;;;1.77;;
20749;SDS011;10535;50.664;4.564;2022-09-13T11:52:29;2.40;;;1.55;;
20749;SDS011;10535;50.664;4.564;2022-09-13T11:55:37;2.90;;;1.50;;
20749;SDS011;10535;50.664;4.564;2022-09-13T12:01:51;4.10;;;1.95;;
20749;SDS011;10535;50.664;4.564;2022-09-13T12:04:37;6.88;;;1.77;;
20749;SDS011;10535;50.664;4.564;2022-09-13T12:07:28;3.90;;;2.13;;
20749;SDS011;10535;50.664;4.564;2022-09-13T12:10:12;2.88;;;1.75;;
20749;SDS011;10535;50.664;4.564;2022-09-13T12:13:09;2.53;;;1.85;;
20749;SDS011;10535;50.664;4.564;2022-09-13T12:16:03;4.25;;;2.20;;
20749;SDS011;10535;50.664;4.564;2022-09-13T12:18:43;6.93;;;2.90;;
20749;SDS011;10535;50.664;4.564;2022-09-13T12:21:37;7.27;;;2.10;;
20749;SDS011;10535;50.664;4.564;2022-09-13T12:27:28;2.37;;;2.17;;
20749;SDS011;10535;50.664;4.564;2022-09-13T12:30:17;3.63;;;2.10;;
20749;SDS011;10535;50.664;4.564;2022-09-13T12:32:47;3.87;;;2.00;;
20749;SDS011;10535;50.664;4.564;2022-09-13T12:40:34;2.58;;;1.70;;
20749;SDS011;10535;50.664;4.564;2022-09-13T12:46:15;2.67;;;1.80;;
20749;SDS011;10535;50.664;4.564;2022-09-13T12:52:15;3.08;;;2.17;;
20749;SDS011;10535;50.664;4.564;2022-09-13T13:01:16;2.83;;;1.95;;
20749;SDS011;10535;50.664;4.564;2022-09-13T13:06:46;2.50;;;1.90;;
20749;SDS011;10535;50.664;4.564;2022-09-13T13:09:35;2.80;;;2.25;;
20749;SDS011;10535;50.664;4.564;2022-09-13T13:12:27;2.60;;;2.00;;
20749;SDS011;10535;50.664;4.564;2022-09-13T13:17:54;2.15;;;1.25;;
20749;SDS011;10535;50.664;4.564;2022-09-13T13:23:42;2.17;;;1.85;;
20749;SDS011;10535;50.664;4.564;2022-09-13T13:40:21;2.08;;;1.27;;
20749;SDS011;10535;50.664;4.564;2022-09-13T13:43:13;2.10;;;1.20;;
20749;SDS011;10535;50.664;4.564;2022-09-13T13:48:47;7.57;;;1.50;;
20749;SDS011;10535;50.664;4.564;2022-09-13T13:51:18;2.42;;;1.75;;
20749;SDS011;10535;50.664;4.564;2022-09-13T13:56:59;4.90;;;1.80;;
20749;SDS011;10535;50.664;4.564;2022-09-13T13:59:29;6.50;;;2.00;;
20749;SDS011;10535;50.664;4.564;2022-09-13T14:02:00;2.13;;;1.70;;
20749;SDS011;10535;50.664;4.564;2022-09-13T14:05:13;3.97;;;2.15;;
20749;SDS011;10535;50.664;4.564;2022-09-13T14:10:43;3.70;;;1.70;;
20749;SDS011;10535;50.664;4.564;2022-09-13T14:18:54;3.03;;;2.08;;
20749;SDS011;10535;50.664;4.564;2022-09-13T14:24:53;5.55;;;2.30;;
20749;SDS011;10535;50.664;4.564;2022-09-13T14:27:44;4.25;;;2.40;;
20749;SDS011;10535;50.664;4.564;2022-09-13T14:30:26;2.17;;;1.90;;
20749;SDS011;10535;50.664;4.564;2022-09-13T14:32:57;3.70;;;1.98;;
20749;SDS011;10535;50.664;4.564;2022-09-13T14:35:32;2.63;;;1.92;;
20749;SDS011;10535;50.664;4.564;2022-09-13T14:38:59;3.00;;;2.20;;
20749;SDS011;10535;50.664;4.564;2022-09-13T14:41:29;3.87;;;2.40;;
20749;SDS011;10535;50.664;4.564;2022-09-13T14:46:54;2.85;;;2.20;;
20749;SDS011;10535;50.664;4.564;2022-09-13T14:50:24;2.80;;;2.30;;
20749;SDS011;10535;50.664;4.564;2022-09-13T14:53:19;4.13;;;2.23;;
20749;SDS011;10535;50.664;4.564;2022-09-13T14:56:14;2.43;;;2.23;;
20749;SDS011;10535;50.664;4.564;2022-09-13T15:01:18;3.43;;;2.43;;
20749;SDS011;10535;50.664;4.564;2022-09-13T15:03:57;3.43;;;2.37;;
20749;SDS011;10535;50.664;4.564;2022-09-13T15:06:29;2.90;;;2.00;;
20749;SDS011;10535;50.664;4.564;2022-09-13T15:17:09;4.90;;;2.30;;
20749;SDS011;10535;50.664;4.564;2022-09-13T15:19:48;3.13;;;2.13;;
20749;SDS011;10535;50.664;4.564;2022-09-13T15:22:18;2.35;;;1.92;;
20749;SDS011;10535;50.664;4.564;2022-09-13T15:24:57;3.55;;;2.20;;
20749;SDS011;10535;50.664;4.564;2022-09-13T15:27:26;2.88;;;2.17;;
20749;SDS011;10535;50.664;4.564;2022-09-13T15:35:43;4.45;;;2.92;;
20749;SDS011;10535;50.664;4.564;2022-09-13T15:38:29;3.20;;;2.60;;
20749;SDS011;10535;50.664;4.564;2022-09-13T15:41:19;2.60;;;2.17;;
20749;SDS011;10535;50.664;4.564;2022-09-13T15:43:49;3.50;;;2.60;;
20749;SDS011;10535;50.664;4.564;2022-09-13T15:46:19;6.03;;;2.92;;
20749;SDS011;10535;50.664;4.564;2022-09-13T15:48:55;3.28;;;2.35;;
20749;SDS011;10535;50.664;4.564;2022-09-13T15:51:41;5.65;;;3.03;;
20749;SDS011;10535;50.664;4.564;2022-09-13T15:54:11;3.13;;;2.33;;
20749;SDS011;10535;50.664;4.564;2022-09-13T15:57:07;4.13;;;2.83;;
20749;SDS011;10535;50.664;4.564;2022-09-13T15:59:51;4.18;;;2.80;;
20749;SDS011;10535;50.664;4.564;2022-09-13T16:02:22;6.00;;;2.90;;
20749;SDS011;10535;50.664;4.564;2022-09-13T16:04:54;3.90;;;2.75;;
20749;SDS011;10535;50.664;4.564;2022-09-13T16:07:26;5.18;;;2.55;;
20749;SDS011;10535;50.664;4.564;2022-09-13T16:09:58;4.53;;;2.70;;
20749;SDS011;10535;50.664;4.564;2022-09-13T16:12:24;5.20;;;2.83;;
20749;SDS011;10535;50.664;4.564;2022-09-13T16:14:50;3.88;;;2.92;;
20749;SDS011;10535;50.664;4.564;2022-09-13T16:17:32;6.40;;;3.30;;
20749;SDS011;10535;50.664;4.564;2022-09-13T16:20:04;4.75;;;2.58;;
20749;SDS011;10535;50.664;4.564;2022-09-13T16:22:47;2.80;;;2.27;;
20749;SDS011;10535;50.664;4.564;2022-09-13T16:25:15;4.97;;;3.00;;
20749;SDS011;10535;50.664;4.564;2022-09-13T16:27:41;5.85;;;3.30;;
20749;SDS011;10535;50.664;4.564;2022-09-13T16:30:15;6.20;;;3.60;;
20749;SDS011;10535;50.664;4.564;2022-09-13T16:33:03;6.57;;;3.40;;
20749;SDS011;10535;50.664;4.564;2022-09-13T16:35:39;7.03;;;4.10;;
20749;SDS011;10535;50.664;4.564;2022-09-13T16:38:05;6.95;;;3.83;;
20749;SDS011;10535;50.664;4.564;2022-09-13T16:40:37;8.57;;;4.07;;
20749;SDS011;10535;50.664;4.564;2022-09-13T16:43:12;5.33;;;3.97;;
20749;SDS011;10535;50.664;4.564;2022-09-13T16:46:20;5.20;;;3.90;;
20749;SDS011;10535;50.664;4.564;2022-09-13T16:49:32;9.60;;;4.33;;
20749;SDS011;10535;50.664;4.564;2022-09-13T16:52:20;6.30;;;4.43;;
20749;SDS011;10535;50.664;4.564;2022-09-13T16:54:46;5.87;;;4.40;;
20749;SDS011;10535;50.664;4.564;2022-09-13T16:57:16;5.80;;;4.17;;
20749;SDS011;10535;50.664;4.564;2022-09-13T16:59:42;9.13;;;4.87;;
20749;SDS011;10535;50.664;4.564;2022-09-13T17:02:11;6.80;;;4.80;;
20749;SDS011;10535;50.664;4.564;2022-09-13T17:04:40;10.83;;;5.17;;
20749;SDS011;10535;50.664;4.564;2022-09-13T17:07:05;9.10;;;4.93;;
20749;SDS011;10535;50.664;4.564;2022-09-13T17:09:32;6.87;;;4.77;;
20749;SDS011;10535;50.664;4.564;2022-09-13T17:12:04;7.30;;;4.73;;
20749;SDS011;10535;50.664;4.564;2022-09-13T17:14:33;7.73;;;4.63;;
20749;SDS011;10535;50.664;4.564;2022-09-13T17:16:59;7.57;;;4.57;;
20749;SDS011;10535;50.664;4.564;2022-09-13T17:19:27;8.07;;;4.83;;
20749;SDS011;10535;50.664;4.564;2022-09-13T17:21:55;7.43;;;4.30;;
20749;SDS011;10535;50.664;4.564;2022-09-13T17:24:25;6.73;;;4.47;;
20749;SDS011;10535;50.664;4.564;2022-09-13T17:26:52;7.43;;;3.50;;
20749;SDS011;10535;50.664;4.564;2022-09-13T17:29:18;6.40;;;4.07;;
20749;SDS011;10535;50.664;4.564;2022-09-13T17:31:46;4.63;;;3.53;;
20749;SDS011;10535;50.664;4.564;2022-09-13T17:34:11;7.10;;;3.70;;
20749;SDS011;10535;50.664;4.564;2022-09-13T17:36:44;4.13;;;2.93;;
20749;SDS011;10535;50.664;4.564;2022-09-13T17:39:15;5.23;;;2.93;;
20749;SDS011;10535;50.664;4.564;2022-09-13T17:41:44;6.57;;;3.37;;
20749;SDS011;10535;50.664;4.564;2022-09-13T17:44:29;6.77;;;3.33;;
20749;SDS011;10535;50.664;4.564;2022-09-13T17:46:55;5.77;;;2.80;;
20749;SDS011;10535;50.664;4.564;2022-09-13T17:49:21;4.27;;;3.10;;
20749;SDS011;10535;50.664;4.564;2022-09-13T17:51:46;3.43;;;2.93;;
20749;SDS011;10535;50.664;4.564;2022-09-13T17:54:12;6.03;;;2.83;;
20749;SDS011;10535;50.664;4.564;2022-09-13T17:56:40;5.00;;;2.50;;
20749;SDS011;10535;50.664;4.564;2022-09-13T18:01:47;4.63;;;3.03;;
20749;SDS011;10535;50.664;4.564;2022-09-13T18:04:43;4.63;;;2.80;;
20749;SDS011;10535;50.664;4.564;2022-09-13T18:07:21;4.53;;;3.30;;
20749;SDS011;10535;50.664;4.564;2022-09-13T18:09:47;6.77;;;3.03;;
20749;SDS011;10535;50.664;4.564;2022-09-13T18:12:24;4.43;;;3.33;;
20749;SDS011;10535;50.664;4.564;2022-09-13T18:14:51;4.97;;;3.43;;
20749;SDS011;10535;50.664;4.564;2022-09-13T18:17:36;4.83;;;3.57;;
20749;SDS011;10535;50.664;4.564;2022-09-13T18:20:05;7.20;;;3.63;;
20749;SDS011;10535;50.664;4.564;2022-09-13T18:22:33;7.33;;;3.27;;
20749;SDS011;10535;50.664;4.564;2022-09-13T18:25:00;6.67;;;3.73;;
20749;SDS011;10535;50.664;4.564;2022-09-13T18:27:26;4.73;;;3.73;;
20749;SDS011;10535;50.664;4.564;2022-09-13T18:29:54;5.70;;;3.90;;
20749;SDS011;10535;50.664;4.564;2022-09-13T18:32:21;5.57;;;3.60;;
20749;SDS011;10535;50.664;4.564;2022-09-13T18:34:46;5.70;;;4.27;;
20749;SDS011;10535;50.664;4.564;2022-09-13T18:37:12;5.30;;;3.80;;
20749;SDS011;10535;50.664;4.564;2022-09-13T18:39:41;6.80;;;3.70;;
20749;SDS011;10535;50.664;4.564;2022-09-13T18:42:09;4.87;;;3.37;;
20749;SDS011;10535;50.664;4.564;2022-09-13T18:44:35;7.03;;;4.10;;
20749;SDS011;10535;50.664;4.564;2022-09-13T18:47:01;6.77;;;4.13;;
20749;SDS011;10535;50.664;4.564;2022-09-13T18:49:29;5.77;;;4.20;;
20749;SDS011;10535;50.664;4.564;2022-09-13T18:51:54;8.13;;;4.73;;
20749;SDS011;10535;50.664;4.564;2022-09-13T18:54:20;10.13;;;5.30;;
20749;SDS011;10535;50.664;4.564;2022-09-13T18:56:46;13.13;;;5.30;;
20749;SDS011;10535;50.664;4.564;2022-09-13T18:59:13;7.40;;;5.30;;